createdAt,value
2018-07-11T00:00:03.020Z,74.52
2018-07-11T00:01:03.014Z,74.62
2018-07-11T00:02:03.011Z,75.43
2018-07-11T00:03:02.992Z,75.29
2018-07-11T00:04:23.999Z,75.29
2018-07-11T00:05:02.979Z,75.29
2018-07-11T00:06:02.960Z,75.71
2018-07-11T00:07:02.951Z,75.58
2018-07-11T00:08:03.007Z,75.20
2018-07-11T00:09:02.940Z,75.29
2018-07-11T00:10:23.934Z,75.43
2018-07-11T00:11:02.922Z,75.01
2018-07-11T00:12:02.901Z,74.72
2018-07-11T00:13:02.896Z,74.95
2018-07-11T00:14:02.887Z,75.10
2018-07-11T00:15:02.909Z,75.81
2018-07-11T00:16:23.875Z,75.81
2018-07-11T00:17:02.862Z,75.96
2018-07-11T00:18:02.855Z,75.96
2018-07-11T00:19:02.841Z,76.25
2018-07-11T00:20:02.832Z,75.71
2018-07-11T00:21:02.819Z,75.81
2018-07-11T00:22:23.817Z,75.04
2018-07-11T00:23:02.793Z,75.81
2018-07-11T00:24:02.793Z,76.00
2018-07-11T00:25:02.779Z,75.43
2018-07-11T00:26:02.770Z,76.00
2018-07-11T00:27:02.764Z,76.00
2018-07-11T00:28:23.750Z,75.68
2018-07-11T00:29:02.744Z,75.62
2018-07-11T00:30:02.739Z,75.58
2018-07-11T00:31:02.726Z,75.87
2018-07-11T00:32:02.711Z,76.29
2018-07-11T00:33:02.706Z,75.77
2018-07-11T00:34:23.701Z,75.87
2018-07-11T00:35:02.685Z,75.96
2018-07-11T00:36:02.680Z,75.90
2018-07-11T00:37:02.735Z,76.29
2018-07-11T00:38:02.665Z,75.68
2018-07-11T00:39:02.651Z,75.96
2018-07-11T00:40:23.639Z,76.35
2018-07-11T00:41:02.629Z,75.77
2018-07-11T00:42:02.621Z,75.48
2018-07-11T00:43:02.630Z,75.81
2018-07-11T00:44:02.601Z,76.25
2018-07-11T00:45:02.591Z,76.44
2018-07-11T00:46:23.601Z,76.44
2018-07-11T00:47:02.572Z,76.64
2018-07-11T00:48:02.564Z,76.44
2018-07-11T00:49:02.555Z,76.44
2018-07-11T00:50:02.546Z,76.64
2018-07-11T00:51:02.534Z,76.35
2018-07-11T00:52:23.537Z,76.54
2018-07-11T00:53:02.513Z,76.35
2018-07-11T00:54:02.503Z,76.35
2018-07-11T00:55:02.508Z,76.06
2018-07-11T00:56:02.487Z,76.82
2018-07-11T00:57:02.480Z,76.82
2018-07-11T00:58:23.478Z,76.54
2018-07-11T00:59:02.459Z,76.82
2018-07-11T01:00:02.447Z,76.44
2018-07-11T01:01:02.445Z,76.35
2018-07-11T01:02:02.436Z,76.25
2018-07-11T01:03:02.419Z,76.35
2018-07-11T01:04:23.415Z,76.54
2018-07-11T01:05:02.410Z,76.54
2018-07-11T01:06:02.397Z,76.44
2018-07-11T01:07:02.388Z,76.64
2018-07-11T01:08:02.374Z,76.92
2018-07-11T01:09:02.366Z,76.92
2018-07-11T01:10:23.377Z,77.11
2018-07-11T01:11:02.354Z,77.21
2018-07-11T01:12:02.333Z,77.65
2018-07-11T01:13:02.327Z,77.88
2018-07-11T01:14:02.323Z,77.84
2018-07-11T01:15:02.304Z,78.17
2018-07-11T01:16:23.303Z,78.89
2018-07-11T01:17:02.289Z,78.89
2018-07-11T01:18:02.274Z,78.32
2018-07-11T01:19:02.271Z,78.70
2018-07-11T01:20:02.260Z,78.42
2018-07-11T01:21:02.244Z,78.80
2018-07-11T01:22:23.244Z,78.03
2018-07-11T01:23:02.234Z,78.03
2018-07-11T01:24:02.218Z,77.84
2018-07-11T01:25:02.209Z,78.03
2018-07-11T01:26:02.203Z,78.61
2018-07-11T01:27:02.188Z,78.42
2018-07-11T01:28:23.183Z,78.61
2018-07-11T01:29:02.167Z,78.22
2018-07-11T01:30:02.170Z,77.65
2018-07-11T01:31:02.162Z,78.32
2018-07-11T01:32:02.143Z,78.32
2018-07-11T01:33:02.133Z,77.75
2018-07-11T01:34:23.130Z,77.65
2018-07-11T01:35:02.111Z,78.61
2018-07-11T01:36:02.103Z,78.42
2018-07-11T01:37:02.096Z,78.80
2018-07-11T01:38:02.083Z,78.84
2018-07-11T01:39:02.076Z,78.45
2018-07-11T01:40:23.073Z,78.89
2018-07-11T01:41:02.051Z,79.57
2018-07-11T01:42:02.058Z,78.89
2018-07-11T01:43:02.039Z,78.70
2018-07-11T01:44:02.024Z,78.42
2018-07-11T01:45:02.016Z,78.70
2018-07-11T01:46:23.012Z,78.51
2018-07-11T01:47:01.994Z,78.80
2018-07-11T01:48:01.988Z,79.28
2018-07-11T01:49:01.972Z,79.57
2018-07-11T01:50:01.969Z,79.08
2018-07-11T01:51:01.959Z,79.47
2018-07-11T01:52:22.951Z,79.95
2018-07-11T01:53:01.941Z,79.57
2018-07-11T01:54:01.935Z,80.43
2018-07-11T01:55:01.917Z,79.91
2018-07-11T01:56:01.913Z,80.62
2018-07-11T01:57:01.898Z,80.96
2018-07-11T01:58:22.899Z,81.54
2018-07-11T01:59:01.891Z,81.34
2018-07-11T02:00:01.868Z,82.20
2018-07-11T02:01:01.865Z,81.54
2018-07-11T02:02:01.849Z,82.20
2018-07-11T02:03:01.831Z,82.20
2018-07-11T02:04:22.829Z,82.49
2018-07-11T02:05:01.815Z,82.49
2018-07-11T02:06:01.807Z,82.40
2018-07-11T02:07:01.806Z,82.01
2018-07-11T02:08:01.788Z,82.78
2018-07-11T02:09:01.781Z,83.16
2018-07-11T02:10:22.773Z,82.78
2018-07-11T02:11:01.763Z,83.26
2018-07-11T02:12:01.747Z,83.16
2018-07-11T02:13:01.734Z,83.26
2018-07-11T02:14:01.733Z,83.54
2018-07-11T02:15:01.721Z,82.68
2018-07-11T02:16:22.715Z,82.87
2018-07-11T02:17:01.701Z,83.45
2018-07-11T02:18:01.700Z,82.68
2018-07-11T02:19:01.675Z,83.54
2018-07-11T02:20:01.670Z,83.26
2018-07-11T02:21:01.662Z,83.06
2018-07-11T02:22:22.656Z,82.78
2018-07-11T02:23:01.642Z,83.36
2018-07-11T02:24:01.628Z,83.26
2018-07-11T02:25:01.618Z,83.16
2018-07-11T02:26:01.619Z,83.26
2018-07-11T02:27:01.602Z,83.36
2018-07-11T02:28:22.593Z,83.45
2018-07-11T02:29:01.582Z,83.20
2018-07-11T02:30:01.570Z,83.36
2018-07-11T02:31:01.562Z,83.45
2018-07-11T02:32:01.554Z,83.16
2018-07-11T02:33:01.540Z,83.54
2018-07-11T02:34:22.540Z,82.87
2018-07-11T02:35:01.523Z,82.78
2018-07-11T02:36:01.515Z,82.87
2018-07-11T02:37:01.496Z,82.40
2018-07-11T02:38:01.489Z,82.59
2018-07-11T02:39:01.482Z,82.06
2018-07-11T02:40:22.473Z,82.20
2018-07-11T02:41:01.459Z,81.82
2018-07-11T02:42:01.449Z,82.59
2018-07-11T02:43:01.437Z,82.59
2018-07-11T02:44:01.432Z,82.43
2018-07-11T02:45:01.417Z,82.68
2018-07-11T02:46:22.414Z,82.53
2018-07-11T02:47:01.407Z,82.82
2018-07-11T02:48:01.392Z,83.11
2018-07-11T02:49:01.389Z,82.59
2018-07-11T02:50:01.377Z,82.53
2018-07-11T02:51:01.362Z,82.78
2018-07-11T02:52:22.356Z,82.15
2018-07-11T02:53:01.338Z,82.30
2018-07-11T02:54:01.336Z,82.24
2018-07-11T02:55:01.323Z,82.15
2018-07-11T02:56:01.313Z,82.06
2018-07-11T02:57:01.304Z,82.15
2018-07-11T02:58:22.293Z,82.43
2018-07-11T02:59:01.297Z,82.34
2018-07-11T03:00:01.275Z,81.96
2018-07-11T03:01:01.259Z,82.82
2018-07-11T03:02:01.252Z,82.34
2018-07-11T03:03:01.242Z,82.06
2018-07-11T03:04:22.236Z,82.43
2018-07-11T03:05:01.230Z,82.43
2018-07-11T03:06:01.217Z,82.34
2018-07-11T03:07:01.201Z,82.53
2018-07-11T03:08:01.196Z,82.73
2018-07-11T03:09:01.211Z,82.63
2018-07-11T03:10:22.175Z,82.24
2018-07-11T03:11:01.155Z,82.63
2018-07-11T03:12:01.192Z,82.78
2018-07-11T03:13:01.136Z,82.97
2018-07-11T03:14:01.129Z,82.97
2018-07-11T03:15:01.136Z,82.78
2018-07-11T03:16:22.118Z,82.68
2018-07-11T03:17:01.112Z,82.78
2018-07-11T03:18:01.094Z,83.01
2018-07-11T03:19:01.078Z,83.93
2018-07-11T03:20:01.072Z,84.12
2018-07-11T03:21:01.070Z,84.59
2018-07-11T03:22:22.067Z,84.88
2018-07-11T03:23:01.044Z,84.79
2018-07-11T03:24:01.035Z,85.27
2018-07-11T03:25:01.022Z,84.88
2018-07-11T03:26:01.013Z,85.27
2018-07-11T03:27:01.005Z,85.22
2018-07-11T03:28:22.003Z,85.75
2018-07-11T03:29:00.983Z,85.80
2018-07-11T03:30:00.973Z,85.80
2018-07-11T03:31:00.961Z,85.61
2018-07-11T03:32:00.957Z,85.27
2018-07-11T03:33:00.937Z,85.22
2018-07-11T03:34:21.947Z,85.36
2018-07-11T03:35:00.927Z,85.41
2018-07-11T03:36:00.914Z,85.36
2018-07-11T03:37:00.897Z,85.80
2018-07-11T03:38:00.894Z,85.75
2018-07-11T03:39:00.878Z,85.55
2018-07-11T03:40:21.870Z,85.94
2018-07-11T03:41:00.861Z,85.84
2018-07-11T03:42:00.854Z,85.55
2018-07-11T03:43:00.840Z,86.04
2018-07-11T03:44:00.836Z,85.75
2018-07-11T03:45:00.819Z,85.27
2018-07-11T03:46:21.818Z,85.36
2018-07-11T03:47:00.804Z,85.65
2018-07-11T03:48:00.794Z,86.51
2018-07-11T03:49:00.776Z,86.18
2018-07-11T03:50:00.767Z,86.47
2018-07-11T03:51:00.776Z,86.51
2018-07-11T03:52:21.758Z,86.08
2018-07-11T03:53:00.741Z,86.85
2018-07-11T03:54:00.730Z,87.23
2018-07-11T03:55:00.716Z,86.57
2018-07-11T03:56:00.711Z,87.23
2018-07-11T03:57:00.700Z,86.85
2018-07-11T03:58:21.697Z,87.52
2018-07-11T03:59:00.678Z,87.33
2018-07-11T04:00:00.673Z,87.43
2018-07-11T04:01:00.657Z,87.23
2018-07-11T04:02:00.646Z,87.71
2018-07-11T04:03:00.638Z,87.62
2018-07-11T04:04:21.630Z,87.23
2018-07-11T04:05:00.617Z,87.71
2018-07-11T04:06:00.607Z,87.62
2018-07-11T04:07:00.596Z,87.71
2018-07-11T04:08:00.587Z,88.19
2018-07-11T04:09:00.575Z,88.00
2018-07-11T04:10:21.569Z,88.29
2018-07-11T04:11:00.557Z,88.19
2018-07-11T04:12:00.542Z,88.67
2018-07-11T04:13:00.534Z,87.71
2018-07-11T04:14:00.526Z,88.29
2018-07-11T04:15:00.514Z,88.29
2018-07-11T04:16:21.510Z,88.29
2018-07-11T04:17:00.491Z,88.29
2018-07-11T04:18:00.488Z,88.57
2018-07-11T04:19:00.481Z,88.48
2018-07-11T04:20:00.464Z,88.38
2018-07-11T04:21:00.450Z,88.48
2018-07-11T04:22:21.446Z,88.86
2018-07-11T04:23:00.429Z,88.86
2018-07-11T04:24:00.420Z,88.67
2018-07-11T04:25:00.408Z,89.34
2018-07-11T04:26:00.398Z,89.53
2018-07-11T04:27:00.391Z,89.05
2018-07-11T04:28:21.384Z,90.20
2018-07-11T04:29:00.365Z,90.30
2018-07-11T04:30:00.361Z,90.48
2018-07-11T04:31:00.346Z,90.01
2018-07-11T04:32:00.337Z,89.72
2018-07-11T04:33:00.331Z,90.58
2018-07-11T04:34:21.323Z,89.81
2018-07-11T04:35:00.309Z,90.01
2018-07-11T04:36:00.302Z,90.30
2018-07-11T04:37:00.281Z,90.96
2018-07-11T04:38:00.284Z,90.87
2018-07-11T04:39:00.272Z,90.87
2018-07-11T04:40:21.260Z,90.73
2018-07-11T04:41:00.249Z,90.96
2018-07-11T04:42:00.231Z,91.49
2018-07-11T04:43:00.225Z,91.63
2018-07-11T04:44:00.218Z,91.25
2018-07-11T04:45:00.203Z,91.25
2018-07-11T04:46:21.203Z,91.16
2018-07-11T04:47:00.191Z,90.87
2018-07-11T04:48:00.173Z,91.06
2018-07-11T04:49:00.163Z,90.87
2018-07-11T04:50:00.157Z,90.96
2018-07-11T04:51:00.141Z,90.96
2018-07-11T04:52:21.137Z,90.77
2018-07-11T04:53:00.122Z,90.96
2018-07-11T04:54:00.111Z,90.87
2018-07-11T04:55:00.101Z,91.06
2018-07-11T04:56:00.096Z,90.67
2018-07-11T04:57:00.084Z,90.58
2018-07-11T04:58:21.076Z,90.77
2018-07-11T04:59:00.062Z,90.77
2018-07-11T05:00:00.045Z,90.39
2018-07-11T05:01:00.044Z,90.77
2018-07-11T05:02:00.028Z,90.77
2018-07-11T05:03:00.030Z,90.58
2018-07-11T05:04:21.005Z,90.39
2018-07-11T05:04:59.995Z,90.67
2018-07-11T05:05:59.977Z,90.77
2018-07-11T05:06:59.979Z,90.87
2018-07-11T05:07:59.961Z,90.87
2018-07-11T05:08:59.958Z,90.30
2018-07-11T05:10:20.950Z,90.30
2018-07-11T05:11:00.057Z,90.67
2018-07-11T05:11:59.926Z,90.96
2018-07-11T05:12:59.914Z,90.87
2018-07-11T05:13:59.904Z,90.48
2018-07-11T05:14:59.889Z,90.96
2018-07-11T05:16:20.922Z,90.87
2018-07-11T05:16:59.865Z,90.77
2018-07-11T05:17:59.861Z,91.63
2018-07-11T05:18:59.850Z,91.44
2018-07-11T05:19:59.840Z,91.53
2018-07-11T05:20:59.829Z,91.92
2018-07-11T05:22:20.832Z,92.21
2018-07-11T05:22:59.814Z,91.92
2018-07-11T05:23:59.795Z,91.53
2018-07-11T05:24:59.792Z,92.11
2018-07-11T05:25:59.778Z,92.02
2018-07-11T05:26:59.768Z,91.92
2018-07-11T05:28:20.768Z,92.11
2018-07-11T05:28:59.744Z,92.30
2018-07-11T05:29:59.739Z,92.30
2018-07-11T05:30:59.730Z,92.21
2018-07-11T05:31:59.716Z,92.21
2018-07-11T05:32:59.705Z,91.73
2018-07-11T05:34:20.697Z,91.63
2018-07-11T05:34:59.684Z,92.02
2018-07-11T05:35:59.670Z,92.11
2018-07-11T05:36:59.668Z,92.11
2018-07-11T05:37:59.652Z,92.02
2018-07-11T05:38:59.648Z,92.21
2018-07-11T05:40:20.641Z,91.73
2018-07-11T05:40:59.623Z,92.21
2018-07-11T05:41:59.615Z,92.21
2018-07-11T05:42:59.604Z,92.11
2018-07-11T05:43:59.593Z,92.02
2018-07-11T05:44:59.577Z,92.07
2018-07-11T05:46:20.576Z,91.88
2018-07-11T05:46:59.563Z,91.78
2018-07-11T05:47:59.549Z,92.11
2018-07-11T05:48:59.539Z,91.78
2018-07-11T05:49:59.530Z,92.02
2018-07-11T05:50:59.514Z,91.88
2018-07-11T05:52:20.505Z,91.97
2018-07-11T05:52:59.493Z,91.59
2018-07-11T05:53:59.485Z,91.49
2018-07-11T05:54:59.476Z,91.49
2018-07-11T05:55:59.472Z,91.78
2018-07-11T05:56:59.451Z,91.68
2018-07-11T05:58:20.452Z,91.68
2018-07-11T05:58:59.427Z,91.49
2018-07-11T05:59:59.421Z,91.49
2018-07-11T06:00:59.410Z,91.59
2018-07-11T06:01:59.402Z,91.30
2018-07-11T06:02:59.391Z,91.39
2018-07-11T06:04:20.385Z,91.20
2018-07-11T06:04:59.366Z,91.11
2018-07-11T06:05:59.356Z,91.88
2018-07-11T06:06:59.349Z,91.39
2018-07-11T06:07:59.346Z,92.07
2018-07-11T06:08:59.331Z,92.25
2018-07-11T06:10:20.317Z,92.35
2018-07-11T06:10:59.308Z,92.07
2018-07-11T06:11:59.299Z,91.97
2018-07-11T06:12:59.285Z,92.07
2018-07-11T06:13:59.273Z,91.88
2018-07-11T06:14:59.264Z,91.30
2018-07-11T06:16:20.306Z,91.30
2018-07-11T06:16:59.238Z,91.20
2018-07-11T06:17:59.232Z,91.11
2018-07-11T06:18:59.226Z,90.82
2018-07-11T06:19:59.209Z,91.11
2018-07-11T06:20:59.197Z,90.82
2018-07-11T06:22:20.193Z,90.39
2018-07-11T06:22:59.196Z,89.81
2018-07-11T06:23:59.165Z,90.20
2018-07-11T06:24:59.155Z,89.34
2018-07-11T06:25:59.150Z,89.34
2018-07-11T06:26:59.131Z,88.86
2018-07-11T06:28:20.121Z,88.29
2018-07-11T06:28:59.120Z,88.67
2018-07-11T06:29:59.105Z,88.29
2018-07-11T06:30:59.092Z,88.67
2018-07-11T06:31:59.080Z,88.38
2018-07-11T06:32:59.074Z,88.76
2018-07-11T06:34:20.065Z,88.00
2018-07-11T06:34:59.052Z,87.62
2018-07-11T06:35:59.048Z,88.38
2018-07-11T06:36:59.028Z,87.81
2018-07-11T06:37:59.111Z,88.48
2018-07-11T06:38:59.011Z,88.48
2018-07-11T06:40:20.000Z,87.81
2018-07-11T06:40:58.981Z,88.09
2018-07-11T06:41:58.974Z,87.81
2018-07-11T06:42:58.993Z,87.23
2018-07-11T06:43:58.963Z,87.43
2018-07-11T06:44:58.959Z,87.85
2018-07-11T06:46:19.941Z,87.47
2018-07-11T06:46:58.922Z,87.08
2018-07-11T06:47:58.945Z,87.08
2018-07-11T06:48:58.907Z,86.70
2018-07-11T06:49:58.899Z,86.51
2018-07-11T06:50:58.930Z,85.84
2018-07-11T06:52:19.876Z,86.22
2018-07-11T06:52:58.870Z,86.99
2018-07-11T06:53:58.852Z,86.22
2018-07-11T06:54:58.846Z,86.04
2018-07-11T06:55:58.880Z,86.22
2018-07-11T06:56:58.822Z,85.84
2018-07-11T06:58:19.821Z,85.94
2018-07-11T06:58:58.802Z,85.84
2018-07-11T06:59:58.789Z,85.75
2018-07-11T07:00:58.785Z,85.55
2018-07-11T07:01:58.773Z,85.55
2018-07-11T07:02:58.755Z,86.41
2018-07-11T07:04:19.751Z,85.84
2018-07-11T07:04:58.742Z,86.04
2018-07-11T07:05:58.732Z,86.32
2018-07-11T07:06:58.715Z,86.61
2018-07-11T07:07:58.702Z,86.70
2018-07-11T07:08:58.700Z,86.61
2018-07-11T07:10:19.689Z,86.41
2018-07-11T07:10:58.684Z,86.61
2018-07-11T07:11:58.669Z,86.32
2018-07-11T07:12:58.662Z,86.41
2018-07-11T07:13:58.645Z,85.55
2018-07-11T07:14:58.634Z,85.55
2018-07-11T07:16:19.630Z,85.75
2018-07-11T07:16:58.618Z,85.65
2018-07-11T07:17:58.606Z,84.50
2018-07-11T07:18:58.602Z,84.69
2018-07-11T07:19:58.585Z,84.12
2018-07-11T07:20:58.576Z,84.59
2018-07-11T07:22:19.570Z,84.31
2018-07-11T07:22:58.554Z,84.69
2018-07-11T07:23:58.543Z,84.88
2018-07-11T07:24:58.533Z,84.59
2018-07-11T07:25:58.521Z,84.98
2018-07-11T07:26:58.513Z,84.69
2018-07-11T07:28:19.519Z,84.50
2018-07-11T07:28:58.562Z,84.55
2018-07-11T07:29:58.488Z,84.64
2018-07-11T07:30:58.475Z,83.87
2018-07-11T07:31:58.462Z,83.49
2018-07-11T07:32:58.450Z,83.63
2018-07-11T07:34:19.449Z,82.19
2018-07-11T07:34:58.455Z,80.37
2018-07-11T07:35:58.422Z,80.22
2018-07-11T07:36:58.422Z,80.41
2018-07-11T07:37:58.406Z,79.55
2018-07-11T07:38:58.412Z,79.83
2018-07-11T07:40:19.386Z,79.93
2018-07-11T07:40:58.373Z,79.39
2018-07-11T07:41:58.369Z,79.55
2018-07-11T07:42:58.358Z,79.16
2018-07-11T07:43:58.348Z,80.12
2018-07-11T07:44:58.331Z,80.41
2018-07-11T07:46:19.327Z,80.70
2018-07-11T07:46:58.323Z,80.60
2018-07-11T07:47:58.307Z,80.27
2018-07-11T07:48:58.291Z,80.37
2018-07-11T07:49:58.280Z,80.27
2018-07-11T07:50:58.274Z,80.18
2018-07-11T07:52:19.273Z,80.43
2018-07-11T07:52:58.297Z,81.67
2018-07-11T07:53:58.247Z,81.00
2018-07-11T07:54:58.239Z,81.10
2018-07-11T07:55:58.225Z,80.62
2018-07-11T07:56:58.210Z,81.20
2018-07-11T07:58:19.210Z,80.62
2018-07-11T07:58:58.194Z,80.81
2018-07-11T07:59:58.190Z,80.56
2018-07-11T08:00:58.176Z,80.37
2018-07-11T08:01:58.168Z,80.37
2018-07-11T08:02:58.160Z,80.37
2018-07-11T08:04:19.156Z,80.94
2018-07-11T08:04:58.136Z,80.56
2018-07-11T08:05:58.129Z,79.80
2018-07-11T08:06:58.138Z,79.80
2018-07-11T08:07:58.108Z,78.97
2018-07-11T08:08:58.096Z,78.97
2018-07-11T08:10:19.094Z,78.30
2018-07-11T08:10:58.081Z,78.78
2018-07-11T08:11:58.071Z,78.40
2018-07-11T08:12:58.062Z,77.25
2018-07-11T08:13:58.053Z,76.90
2018-07-11T08:14:58.038Z,76.62
2018-07-11T08:16:19.034Z,75.65
2018-07-11T08:16:58.028Z,77.25
2018-07-11T08:17:58.008Z,78.05
2018-07-11T08:18:58.002Z,77.44
2018-07-11T08:19:57.989Z,77.58
2018-07-11T08:20:57.984Z,77.19
2018-07-11T08:22:18.979Z,76.52
2018-07-11T08:22:57.967Z,75.85
2018-07-11T08:23:57.951Z,75.85
2018-07-11T08:24:57.947Z,74.79
2018-07-11T08:25:57.931Z,74.93
2018-07-11T08:26:57.924Z,74.44
2018-07-11T08:28:18.918Z,73.10
2018-07-11T08:28:57.911Z,73.97
2018-07-11T08:29:57.898Z,74.44
2018-07-11T08:30:57.889Z,74.54
2018-07-11T08:31:57.887Z,73.77
2018-07-11T08:32:57.871Z,73.39
2018-07-11T08:34:18.865Z,73.10
2018-07-11T08:34:57.881Z,73.68
2018-07-11T08:35:57.841Z,73.10
2018-07-11T08:36:57.828Z,74.83
2018-07-11T08:37:57.822Z,74.44
2018-07-11T08:38:57.806Z,73.72
2018-07-11T08:40:18.802Z,73.81
2018-07-11T08:40:57.788Z,74.01
2018-07-11T08:41:57.782Z,73.43
2018-07-11T08:42:57.780Z,74.10
2018-07-11T08:43:57.762Z,72.85
2018-07-11T08:44:57.751Z,72.37
2018-07-11T08:46:18.753Z,71.51
2018-07-11T08:46:57.743Z,71.41
2018-07-11T08:47:57.739Z,71.12
2018-07-11T08:48:57.719Z,70.74
2018-07-11T08:49:57.720Z,71.80
2018-07-11T08:50:57.705Z,71.61
2018-07-11T08:52:18.698Z,71.41
2018-07-11T08:52:57.688Z,71.61
2018-07-11T08:53:57.671Z,71.80
2018-07-11T08:54:57.671Z,71.89
2018-07-11T08:55:57.656Z,71.51
2018-07-11T08:56:57.651Z,71.98
2018-07-11T08:58:18.649Z,71.45
2018-07-11T08:58:57.624Z,71.06
2018-07-11T08:59:57.625Z,71.35
2018-07-11T09:00:57.610Z,69.91
2018-07-11T09:01:57.600Z,69.05
2018-07-11T09:02:57.592Z,68.95
2018-07-11T09:04:18.588Z,68.85
2018-07-11T09:04:57.568Z,69.24
2018-07-11T09:05:57.564Z,68.85
2018-07-11T09:06:57.558Z,68.28
2018-07-11T09:07:57.545Z,68.51
2018-07-11T09:08:57.540Z,68.89
2018-07-11T09:10:18.543Z,68.31
2018-07-11T09:10:57.528Z,67.54
2018-07-11T09:11:57.516Z,67.45
2018-07-11T09:12:57.500Z,67.35
2018-07-11T09:13:57.497Z,67.13
2018-07-11T09:14:57.487Z,67.25
2018-07-11T09:16:18.487Z,68.02
2018-07-11T09:16:57.466Z,67.93
2018-07-11T09:17:57.467Z,68.21
2018-07-11T09:18:57.487Z,67.83
2018-07-11T09:19:57.443Z,68.12
2018-07-11T09:20:57.438Z,68.08
2018-07-11T09:22:18.429Z,68.12
2018-07-11T09:22:57.413Z,68.41
2018-07-11T09:23:57.462Z,68.21
2018-07-11T09:24:57.400Z,68.12
2018-07-11T09:25:57.391Z,68.41
2018-07-11T09:26:57.385Z,67.35
2018-07-11T09:28:18.380Z,68.12
2018-07-11T09:28:57.368Z,68.51
2018-07-11T09:29:57.364Z,67.00
2018-07-11T09:30:57.353Z,67.16
2018-07-11T09:31:57.339Z,67.25
2018-07-11T09:32:57.331Z,67.16
2018-07-11T09:34:18.328Z,66.00
2018-07-11T09:34:57.313Z,65.81
2018-07-11T09:35:57.308Z,66.49
2018-07-11T09:36:57.302Z,67.35
2018-07-11T09:37:57.294Z,66.68
2018-07-11T09:38:57.284Z,66.39
2018-07-11T09:40:18.284Z,66.77
2018-07-11T09:40:57.265Z,67.16
2018-07-11T09:41:57.258Z,67.35
2018-07-11T09:42:57.252Z,67.07
2018-07-11T09:43:57.238Z,66.87
2018-07-11T09:44:57.232Z,67.25
2018-07-11T09:46:18.227Z,67.07
2018-07-11T09:46:57.227Z,67.07
2018-07-11T09:47:57.202Z,66.58
2018-07-11T09:48:57.190Z,66.97
2018-07-11T09:49:57.190Z,66.39
2018-07-11T09:50:57.176Z,65.91
2018-07-11T09:52:18.218Z,66.87
2018-07-11T09:52:57.164Z,66.77
2018-07-11T09:53:57.151Z,67.16
2018-07-11T09:54:57.141Z,66.97
2018-07-11T09:55:57.143Z,66.20
2018-07-11T09:56:57.128Z,67.35
2018-07-11T09:58:18.128Z,67.68
2018-07-11T09:58:57.121Z,65.94
2018-07-11T09:59:57.106Z,66.04
2018-07-11T10:00:57.095Z,64.98
2018-07-11T10:01:57.087Z,64.89
2018-07-11T10:02:57.082Z,65.46
2018-07-11T10:04:18.075Z,67.29
2018-07-11T10:04:57.060Z,65.37
2018-07-11T10:05:57.052Z,64.31
2018-07-11T10:06:57.048Z,65.23
2018-07-11T10:07:57.039Z,65.91
2018-07-11T10:08:57.028Z,66.20
2018-07-11T10:10:18.028Z,65.23
2018-07-11T10:10:57.008Z,64.47
2018-07-11T10:11:57.049Z,64.56
2018-07-11T10:12:56.999Z,64.09
2018-07-11T10:13:56.984Z,64.76
2018-07-11T10:14:56.985Z,65.23
2018-07-11T10:16:17.977Z,65.84
2018-07-11T10:16:56.962Z,64.22
2018-07-11T10:17:56.954Z,64.22
2018-07-11T10:18:56.962Z,64.79
2018-07-11T10:19:56.941Z,64.02
2018-07-11T10:20:56.930Z,64.79
2018-07-11T10:22:17.924Z,65.46
2018-07-11T10:22:56.916Z,65.37
2018-07-11T10:23:56.905Z,64.05
2018-07-11T10:24:56.895Z,64.34
2018-07-11T10:25:56.887Z,62.71
2018-07-11T10:26:56.881Z,63.18
2018-07-11T10:28:17.879Z,63.18
2018-07-11T10:28:56.864Z,62.99
2018-07-11T10:29:56.858Z,62.03
2018-07-11T10:30:56.850Z,62.23
2018-07-11T10:31:56.843Z,62.51
2018-07-11T10:32:56.828Z,61.94
2018-07-11T10:34:17.827Z,62.99
2018-07-11T10:34:56.821Z,63.38
2018-07-11T10:35:56.805Z,60.88
2018-07-11T10:36:56.796Z,60.97
2018-07-11T10:37:56.793Z,59.44
2018-07-11T10:38:56.795Z,59.05
2018-07-11T10:40:17.782Z,59.34
2018-07-11T10:40:56.765Z,60.39
2018-07-11T10:41:56.763Z,60.21
2018-07-11T10:42:56.755Z,61.26
2018-07-11T10:43:56.744Z,61.36
2018-07-11T10:44:56.770Z,60.72
2018-07-11T10:46:17.730Z,59.47
2018-07-11T10:46:56.716Z,59.63
2018-07-11T10:47:56.708Z,60.01
2018-07-11T10:48:56.700Z,61.49
2018-07-11T10:49:56.690Z,61.49
2018-07-11T10:50:56.691Z,59.47
2018-07-11T10:52:17.682Z,59.75
2018-07-11T10:52:56.663Z,59.17
2018-07-11T10:53:56.659Z,58.79
2018-07-11T10:54:56.658Z,58.40
2018-07-11T10:55:56.645Z,58.15
2018-07-11T10:56:56.643Z,56.80
2018-07-11T10:58:17.639Z,56.10
2018-07-11T10:58:56.623Z,57.06
2018-07-11T10:59:56.615Z,59.08
2018-07-11T11:01:05.699Z,58.98
2018-07-11T11:01:56.600Z,58.22
2018-07-11T11:02:56.583Z,56.87
2018-07-11T11:04:17.585Z,58.40
2018-07-11T11:04:56.618Z,59.08
2018-07-11T11:05:56.571Z,58.60
2018-07-11T11:06:56.557Z,59.66
2018-07-11T11:07:56.591Z,57.73
2018-07-11T11:08:56.543Z,58.70
2018-07-11T11:10:17.541Z,57.92
2018-07-11T11:10:56.529Z,59.27
2018-07-11T11:11:56.520Z,59.78
2018-07-11T11:12:56.506Z,58.63
2018-07-11T11:13:56.510Z,57.76
2018-07-11T11:14:56.494Z,59.20
2018-07-11T11:16:17.494Z,59.30
2018-07-11T11:16:56.479Z,59.59
2018-07-11T11:17:56.473Z,58.82
2018-07-11T11:18:56.466Z,57.18
2018-07-11T11:19:56.453Z,57.09
2018-07-11T11:20:56.450Z,58.92
2018-07-11T11:22:17.449Z,59.11
2018-07-11T11:22:56.441Z,58.15
2018-07-11T11:23:56.427Z,59.11
2018-07-11T11:24:56.414Z,58.65
2018-07-11T11:25:56.406Z,57.86
2018-07-11T11:26:56.400Z,57.89
2018-07-11T11:28:17.398Z,56.99
2018-07-11T11:28:56.382Z,58.47
2018-07-11T11:29:56.370Z,58.17
2018-07-11T11:30:56.372Z,57.02
2018-07-11T11:31:56.402Z,55.31
2018-07-11T11:32:56.357Z,55.31
2018-07-11T11:34:17.351Z,55.67
2018-07-11T11:34:56.339Z,56.25
2018-07-11T11:35:56.335Z,56.63
2018-07-11T11:36:56.323Z,55.60
2018-07-11T11:37:56.321Z,55.31
2018-07-11T11:38:56.315Z,55.99
2018-07-11T11:40:17.303Z,56.09
2018-07-11T11:40:56.294Z,55.02
2018-07-11T11:41:56.411Z,55.48
2018-07-11T11:42:56.315Z,55.29
2018-07-11T11:43:56.272Z,55.83
2018-07-11T11:44:56.268Z,55.16
2018-07-11T11:46:17.284Z,55.00
2018-07-11T11:46:56.247Z,56.05
2018-07-11T11:47:56.242Z,55.87
2018-07-11T11:48:56.237Z,54.32
2018-07-11T11:49:56.229Z,54.42
2018-07-11T11:50:56.225Z,54.42
2018-07-11T11:52:17.219Z,54.13
2018-07-11T11:52:56.205Z,55.51
2018-07-11T11:53:56.197Z,55.51
2018-07-11T11:54:56.198Z,54.80
2018-07-11T11:55:56.181Z,55.89
2018-07-11T11:56:56.170Z,55.89
2018-07-11T11:58:17.174Z,54.25
2018-07-11T11:58:56.156Z,54.35
2018-07-11T11:59:56.152Z,53.77
2018-07-11T12:00:56.148Z,53.29
2018-07-11T12:01:56.140Z,53.87
2018-07-11T12:02:56.132Z,54.16
2018-07-11T12:04:17.126Z,54.25
2018-07-11T12:04:56.117Z,54.54
2018-07-11T12:05:56.119Z,53.39
2018-07-11T12:06:56.099Z,53.00
2018-07-11T12:07:56.094Z,54.16
2018-07-11T12:08:56.088Z,55.12
2018-07-11T12:10:17.096Z,55.99
2018-07-11T12:10:56.075Z,55.54
2018-07-11T12:11:56.065Z,54.09
2018-07-11T12:12:56.057Z,54.38
2018-07-11T12:13:56.055Z,53.41
2018-07-11T12:14:56.045Z,53.87
2018-07-11T12:16:17.044Z,54.06
2018-07-11T12:16:56.035Z,54.64
2018-07-11T12:17:56.023Z,55.54
2018-07-11T12:18:56.017Z,53.99
2018-07-11T12:19:56.007Z,54.28
2018-07-11T12:20:55.996Z,53.13
2018-07-11T12:22:17.007Z,53.31
2018-07-11T12:22:55.982Z,53.80
2018-07-11T12:23:55.978Z,53.70
2018-07-11T12:24:55.974Z,54.47
2018-07-11T12:25:55.964Z,54.18
2018-07-11T12:26:55.958Z,53.99
2018-07-11T12:28:16.956Z,54.28
2018-07-11T12:28:55.946Z,54.09
2018-07-11T12:29:55.944Z,54.28
2018-07-11T12:30:55.929Z,53.31
2018-07-11T12:31:55.925Z,53.61
2018-07-11T12:32:55.919Z,53.89
2018-07-11T12:34:16.918Z,53.89
2018-07-11T12:34:55.903Z,53.99
2018-07-11T12:35:55.895Z,53.22
2018-07-11T12:36:55.885Z,52.83
2018-07-11T12:37:55.886Z,52.45
2018-07-11T12:38:55.871Z,53.22
2018-07-11T12:40:16.874Z,54.09
2018-07-11T12:40:55.858Z,52.93
2018-07-11T12:41:55.857Z,52.45
2018-07-11T12:42:55.850Z,53.15
2018-07-11T12:43:55.837Z,52.45
2018-07-11T12:44:55.827Z,52.47
2018-07-11T12:46:16.828Z,52.25
2018-07-11T12:46:55.822Z,53.22
2018-07-11T12:47:55.810Z,52.73
2018-07-11T12:48:55.806Z,52.06
2018-07-11T12:49:55.798Z,51.87
2018-07-11T12:50:55.788Z,53.41
2018-07-11T12:52:16.788Z,53.05